Time;durP1;ratioP1;P1;durP2;ratioP2;P2;SDS_P1;SDS_P2;PMS_P1;PMS_P2;Temp;Humidity;BMP_temperature;BMP_pressure;BME280_temperature;BME280_humidity;BME280_pressure;Samples;Min_cycle;Max_cycle;Signal;HPM_P1;HPM_P2
2021/08/21 00:04:01;;;;;;;0.10;0.10;;;;;;;10.48;95.26;101993.41;10536814;28;20020;-58
2021/08/21 00:09:02;;;;;;;0.10;0.10;;;;;;;10.47;96.09;101993.53;10537091;28;20044;-60
2021/08/21 00:14:02;;;;;;;0.10;0.10;;;;;;;10.45;95.54;102008.81;10534006;28;20020;-60
2021/08/21 00:19:03;;;;;;;0.10;0.10;;;;;;;10.37;94.86;102002.31;10493766;28;20036;-61
2021/08/21 00:24:05;;;;;;;0.08;0.08;;;;;;;10.33;95.31;102006.22;10494035;28;20025;-61
2021/08/21 00:29:05;;;;;;;0.10;0.10;;;;;;;10.19;94.39;102009.16;10492559;28;20100;-60
2021/08/21 00:34:06;;;;;;;0.10;0.10;;;;;;;9.96;94.30;102006.56;10493590;28;20132;-61
2021/08/21 00:39:06;;;;;;;0.00;0.00;;;;;;;9.82;94.72;102006.84;10491672;28;20285;-61
2021/08/21 00:44:07;;;;;;;0.10;0.10;;;;;;;9.75;94.25;102008.34;10451627;28;20032;-61
2021/08/21 00:49:07;;;;;;;0.08;0.08;;;;;;;9.65;93.83;102012.69;10451969;28;20465;-58
2021/08/21 00:54:07;;;;;;;0.10;0.10;;;;;;;9.53;93.75;102018.03;10452209;28;20021;-61
2021/08/21 00:59:09;;;;;;;0.10;0.10;;;;;;;9.41;93.73;102018.19;10451499;28;20082;-61
2021/08/21 01:04:10;;;;;;;0.08;0.08;;;;;;;9.32;93.85;102013.59;10449718;28;20463;-61
2021/08/21 01:09:10;;;;;;;0.10;0.10;;;;;;;9.26;94.45;102015.78;10451354;28;20028;-60
2021/08/21 01:14:10;;;;;;;0.00;0.00;;;;;;;9.23;94.33;102004.53;10489538;28;20032;-61
2021/08/21 01:19:11;;;;;;;0.00;0.00;;;;;;;9.16;94.15;102011.28;10492503;28;20029;-61
2021/08/21 01:24:11;;;;;;;0.00;0.00;;;;;;;9.08;94.54;102006.59;10491668;28;20016;-61
2021/08/21 01:29:12;;;;;;;0.03;0.03;;;;;;;9.07;95.47;102008.41;10508237;28;20036;-59
2021/08/21 01:34:12;;;;;;;0.10;0.10;;;;;;;9.13;96.41;101998.25;10491147;28;20290;-59
2021/08/21 01:39:14;;;;;;;0.00;0.00;;;;;;;9.11;95.26;101997.56;10491421;28;20372;-61
2021/08/21 01:44:17;;;;;;;0.05;0.05;;;;;;;9.00;95.61;101996.56;10491744;28;20030;-60
2021/08/21 01:49:19;;;;;;;0.00;0.00;;;;;;;8.89;94.96;101988.59;10487211;28;20017;-59
2021/08/21 01:54:20;;;;;;;0.10;0.10;;;;;;;8.77;95.16;101981.56;10490689;28;20430;-60
2021/08/21 01:59:33;;;;;;;0.00;0.00;;;;;;;8.70;95.73;101983.88;10532481;28;20107;-61
2021/08/21 02:04:34;;;;;;;0.00;0.00;;;;;;;8.63;95.79;101982.63;10532914;28;20032;-61
2021/08/21 02:09:34;;;;;;;0.00;0.00;;;;;;;8.60;96.08;101997.00;10533180;28;20342;-61
2021/08/21 02:14:35;;;;;;;0.00;0.00;;;;;;;8.56;95.64;101994.69;10532338;28;20027;-59
2021/08/21 02:19:35;;;;;;;0.00;0.00;;;;;;;8.54;95.72;102002.78;10520560;28;20051;-58
2021/08/21 02:24:37;;;;;;;0.00;0.00;;;;;;;8.53;96.14;101987.81;10448719;28;20444;-60
2021/08/21 02:29:37;;;;;;;0.00;0.00;;;;;;;8.50;96.89;101990.72;10507390;28;20115;-60
2021/08/21 02:34:38;;;;;;;0.00;0.00;;;;;;;8.48;96.53;101989.97;10532018;28;20080;-61
2021/08/21 02:39:39;;;;;;;0.00;0.00;;;;;;;8.47;96.47;101984.78;10532480;28;20028;-60
2021/08/21 02:44:40;;;;;;;0.00;0.00;;;;;;;8.43;96.29;101978.84;10533756;28;20028;-60
2021/08/21 02:49:40;;;;;;;0.00;0.00;;;;;;;8.39;96.67;101988.03;10497838;28;20135;-61
2021/08/21 02:54:40;;;;;;;0.00;0.00;;;;;;;8.35;96.20;102000.66;10496973;28;20282;-59
2021/08/21 02:59:41;;;;;;;0.00;0.00;;;;;;;8.32;96.72;102002.66;10497541;28;20025;-57
2021/08/21 03:04:41;;;;;;;0.00;0.00;;;;;;;8.25;95.79;102007.59;10497650;28;20476;-59
2021/08/21 03:09:41;;;;;;;0.00;0.00;;;;;;;8.21;96.46;102014.13;10496988;28;20033;-61
2021/08/21 03:14:41;;;;;;;0.10;0.10;;;;;;;8.21;96.31;102015.94;10493668;28;20036;-60
2021/08/21 03:19:42;;;;;;;0.00;0.00;;;;;;;8.37;97.54;102013.78;10505104;28;20033;-60
2021/08/21 03:24:43;;;;;;;0.00;0.00;;;;;;;8.57;97.55;102021.13;10497501;28;20021;-61
2021/08/21 03:29:43;;;;;;;0.00;0.00;;;;;;;8.67;97.54;102028.38;10509429;28;20028;-60
2021/08/21 03:34:44;;;;;;;0.00;0.00;;;;;;;8.75;98.00;102020.69;10519867;28;20025;-58
2021/08/21 03:39:44;;;;;;;0.08;0.08;;;;;;;8.89;97.71;102022.28;10454948;28;20029;-59
2021/08/21 03:44:45;;;;;;;0.00;0.00;;;;;;;9.07;98.75;102024.38;10454742;28;20169;-60
2021/08/21 03:49:46;;;;;;;0.00;0.00;;;;;;;9.20;98.72;102026.91;10454711;28;20031;-60
2021/08/21 03:54:46;;;;;;;0.03;0.03;;;;;;;9.30;98.06;102035.81;10520774;28;20196;-60
2021/08/21 03:59:47;;;;;;;0.00;0.00;;;;;;;9.42;97.99;102036.66;10551904;22;20124;-56
2021/08/21 04:04:47;;;;;;;0.00;0.00;;;;;;;9.60;98.25;102037.03;10539847;28;20585;-56
2021/08/21 04:09:47;;;;;;;0.10;0.10;;;;;;;9.72;98.88;102025.41;10529834;28;20078;-57
2021/08/21 04:14:48;;;;;;;0.00;0.00;;;;;;;9.83;98.59;102019.22;10497059;28;20283;-58
2021/08/21 04:19:48;;;;;;;0.10;0.10;;;;;;;10.05;98.80;102015.63;10497110;28;20067;-55
2021/08/21 04:24:48;;;;;;;0.00;0.00;;;;;;;10.47;98.46;102026.38;10497651;28;20258;-55
2021/08/21 04:29:49;;;;;;;0.00;0.00;;;;;;;10.78;96.77;102024.59;10496622;28;20020;-56
2021/08/21 04:34:49;;;;;;;0.00;0.00;;;;;;;11.01;95.51;102038.63;10496679;28;20497;-56
2021/08/21 04:39:49;;;;;;;0.10;0.10;;;;;;;10.98;94.83;102040.72;10496679;28;20016;-54
2021/08/21 04:44:50;;;;;;;0.10;0.10;;;;;;;10.95;94.75;102044.47;10495876;28;20386;-57
2021/08/21 04:49:50;;;;;;;0.10;0.10;;;;;;;11.07;94.21;102038.06;10495635;28;20024;-56
2021/08/21 04:54:51;;;;;;;0.10;0.10;;;;;;;11.38;94.32;102048.75;10495203;28;20047;-55
2021/08/21 04:59:51;;;;;;;0.00;0.00;;;;;;;11.47;93.10;102033.75;10495130;28;20640;-56
2021/08/21 05:04:51;;;;;;;0.00;0.00;;;;;;;11.62;93.26;102050.25;10495218;28;20024;-57
2021/08/21 05:09:52;;;;;;;0.10;0.10;;;;;;;12.02;92.48;102050.22;10495351;28;20271;-59
2021/08/21 05:14:52;;;;;;;0.10;0.10;;;;;;;12.78;91.21;102052.16;10494462;28;20032;-57
2021/08/21 05:19:53;;;;;;;0.00;0.00;;;;;;;13.52;90.96;102046.00;10494244;28;20459;-57
2021/08/21 05:24:54;;;;;;;0.10;0.10;;;;;;;14.08;88.81;102055.69;10494661;28;20465;-56
2021/08/21 05:29:54;;;;;;;0.10;0.10;;;;;;;14.28;88.16;102051.00;10494030;28;20106;-58
2021/08/21 05:34:55;;;;;;;0.10;0.10;;;;;;;14.19;88.64;102049.25;10493696;28;20036;-58
2021/08/21 05:39:55;;;;;;;0.10;0.10;;;;;;;14.08;89.73;102066.41;10493699;28;20035;-59
2021/08/21 05:44:55;;;;;;;0.00;0.00;;;;;;;14.02;90.44;102054.47;10494098;28;20013;-57
2021/08/21 05:50:00;;;;;;;0.10;0.10;;;;;;;14.04;90.64;102065.00;10494470;28;20036;-58
2021/08/21 05:55:01;;;;;;;0.03;0.03;;;;;;;14.13;91.56;102068.63;10503604;28;20031;-58
2021/08/21 06:00:05;;;;;;;0.10;0.10;;;;;;;14.29;91.57;102068.78;10534925;28;20035;-56
2021/08/21 06:05:06;;;;;;;0.10;0.10;;;;;;;14.45;91.40;102078.78;10534596;28;20090;-59
2021/08/21 06:10:07;;;;;;;0.05;0.05;;;;;;;14.65;90.84;102076.81;10534672;28;20024;-58
2021/08/21 06:15:08;;;;;;;0.00;0.00;;;;;;;14.83;90.33;102068.75;10534602;28;20050;-56
2021/08/21 06:20:09;;;;;;;0.10;0.10;;;;;;;14.98;90.13;102072.56;10533755;28;20024;-56
2021/08/21 06:25:10;;;;;;;0.10;0.10;;;;;;;15.09;90.02;102076.78;10534251;28;20431;-56
2021/08/21 06:30:11;;;;;;;0.10;0.10;;;;;;;15.18;89.49;102078.53;10534922;28;20099;-59
2021/08/21 06:35:12;;;;;;;0.10;0.10;;;;;;;15.35;90.15;102082.13;10533895;28;20490;-59
2021/08/21 06:40:13;;;;;;;0.10;0.10;;;;;;;15.43;88.59;102087.56;10534003;28;20039;-58
2021/08/21 06:45:13;;;;;;;0.10;0.10;;;;;;;15.51;88.50;102082.22;10534341;28;20023;-57
2021/08/21 06:50:13;;;;;;;0.10;0.10;;;;;;;15.67;89.16;102086.81;10533888;28;20027;-58
2021/08/21 06:55:14;;;;;;;0.00;0.00;;;;;;;15.90;86.75;102095.16;10521899;28;20025;-55
2021/08/21 07:00:14;;;;;;;0.10;0.10;;;;;;;16.23;86.33;102087.16;10491631;28;20056;-55
2021/08/21 07:05:15;;;;;;;0.10;0.10;;;;;;;16.64;83.20;102087.19;10473718;28;20177;-55
2021/08/21 07:10:15;;;;;;;0.00;0.00;;;;;;;16.94;83.68;102091.91;10491823;28;20029;-56
2021/08/21 07:15:15;;;;;;;0.10;0.10;;;;;;;17.06;82.37;102084.34;10491482;28;20479;-57
2021/08/21 07:20:16;;;;;;;0.00;0.00;;;;;;;17.19;81.81;102090.03;10491531;28;20028;-58
2021/08/21 07:25:16;;;;;;;0.10;0.10;;;;;;;17.46;79.33;102096.00;10491995;28;20463;-58
2021/08/21 07:30:17;;;;;;;0.00;0.00;;;;;;;17.83;78.31;102091.81;10505544;28;20052;-58
2021/08/21 07:35:17;;;;;;;0.10;0.10;;;;;;;17.99;78.38;102091.75;10540329;28;20027;-57
2021/08/21 07:40:17;;;;;;;0.10;0.10;;;;;;;18.10;77.75;102096.75;10540345;28;20024;-57
2021/08/21 07:45:18;;;;;;;0.10;0.10;;;;;;;18.29;75.64;102106.22;10540606;28;20373;-59
2021/08/21 07:50:19;;;;;;;0.10;0.10;;;;;;;18.37;75.74;102105.31;10540568;28;20055;-59
2021/08/21 07:55:19;;;;;;;0.10;0.10;;;;;;;18.48;73.56;102107.59;10518965;28;20035;-56
2021/08/21 08:00:19;;;;;;;0.10;0.10;;;;;;;18.58;76.09;102103.81;10537235;28;20482;-56
2021/08/21 08:05:20;;;;;;;0.10;0.10;;;;;;;18.70;73.97;102102.38;10538980;28;20046;-57
2021/08/21 08:10:21;;;;;;;0.00;0.00;;;;;;;18.89;74.38;102099.19;10533060;28;20028;-57
2021/08/21 08:15:21;;;;;;;0.10;0.10;;;;;;;19.11;73.45;102097.47;10496841;28;20399;-58
2021/08/21 08:20:21;;;;;;;0.10;0.10;;;;;;;19.22;71.86;102093.47;10496434;28;20039;-59
2021/08/21 08:25:22;;;;;;;0.00;0.00;;;;;;;19.71;69.99;102087.50;10496502;28;20025;-56
2021/08/21 08:30:23;;;;;;;0.10;0.10;;;;;;;19.80;69.18;102090.94;10496353;28;20107;-59
2021/08/21 08:35:23;;;;;;;0.00;0.00;;;;;;;20.20;67.74;102086.81;10477864;28;20078;-60
2021/08/21 08:40:25;;;;;;;0.00;0.00;;;;;;;20.43;64.94;102089.34;10477301;28;20033;-60
2021/08/21 08:45:26;;;;;;;0.00;0.00;;;;;;;20.51;64.63;102093.78;10495491;28;20530;-59
2021/08/21 08:50:27;;;;;;;0.07;0.07;;;;;;;20.67;65.48;102098.94;10495300;28;20103;-58
2021/08/21 08:55:28;;;;;;;0.00;0.00;;;;;;;20.69;64.07;102093.34;10495053;28;20100;-58
2021/08/21 09:00:28;;;;;;;0.00;0.00;;;;;;;20.49;64.24;102104.78;10495019;28;20020;-58
2021/08/21 09:05:40;;;;;;;0.00;0.00;;;;;;;20.49;62.33;102103.97;10494960;28;20052;-60
2021/08/21 09:10:41;;;;;;;0.00;0.00;;;;;;;20.83;63.53;102108.66;10471051;28;20511;-60
2021/08/21 09:15:43;;;;;;;0.00;0.00;;;;;;;20.96;64.16;102105.22;10453252;28;20028;-60
2021/08/21 09:20:49;;;;;;;0.10;0.10;;;;;;;21.33;63.21;102114.84;10452981;28;20031;-59
2021/08/21 09:26:12;;;;;;;0.00;0.00;;;;;;;21.23;61.15;102117.94;10453448;28;20028;-60
2021/08/21 09:31:23;;;;;;;0.10;0.10;;;;;;;21.25;60.02;102110.41;10452726;28;20423;-60
2021/08/21 09:36:33;;;;;;;0.00;0.00;;;;;;;21.27;60.98;102106.69;10453180;28;20044;-60
2021/08/21 09:42:03;;;;;;;0.00;0.00;;;;;;;21.47;62.00;102099.53;10464051;28;20025;-60
2021/08/21 09:47:23;;;;;;;0.10;0.10;;;;;;;21.64;61.70;102090.03;10493604;28;20104;-60
2021/08/21 09:52:24;;;;;;;0.10;0.10;;;;;;;21.53;58.69;102097.91;10493133;28;20044;-59
2021/08/21 09:57:24;;;;;;;0.00;0.00;;;;;;;21.81;61.63;102086.94;10493427;28;20063;-59
2021/08/21 10:02:26;;;;;;;0.10;0.10;;;;;;;21.95;59.84;102085.97;10493353;28;20028;-58
2021/08/21 10:07:34;;;;;;;0.00;0.00;;;;;;;22.29;59.85;102085.03;10493147;28;20629;-58
2021/08/21 10:12:36;;;;;;;0.10;0.10;;;;;;;22.02;57.88;102075.97;10526683;22;20059;-62
2021/08/21 10:17:38;;;;;;;0.10;0.10;;;;;;;21.68;61.26;102072.31;10523301;28;20031;-61
2021/08/21 10:22:40;;;;;;;0.10;0.10;;;;;;;21.79;60.87;102075.50;10529652;28;20042;-61
2021/08/21 10:27:50;;;;;;;0.10;0.10;;;;;;;22.08;60.23;102080.56;10525711;28;20859;-61
2021/08/21 10:33:02;;;;;;;0.00;0.00;;;;;;;22.29;61.55;102060.59;10509844;28;20035;-61
2021/08/21 10:38:03;;;;;;;0.10;0.10;;;;;;;22.48;61.54;102080.66;10488746;28;20087;-61
2021/08/21 10:43:05;;;;;;;0.10;0.10;;;;;;;22.72;60.54;102086.50;10503021;28;20267;-61
2021/08/21 10:48:07;;;;;;;0.00;0.00;;;;;;;22.98;58.35;102085.69;10504292;28;20012;-61
2021/08/21 10:53:07;;;;;;;0.00;0.00;;;;;;;22.90;59.52;102077.75;10526601;28;20089;-61
2021/08/21 10:58:10;;;;;;;0.03;0.03;;;;;;;22.64;56.16;102078.59;10516211;28;20078;-61
2021/08/21 11:03:12;;;;;;;0.10;0.10;;;;;;;22.59;56.28;102082.75;10524904;28;20040;-61
2021/08/21 11:08:13;;;;;;;0.00;0.00;;;;;;;23.12;55.71;102070.19;10537065;28;20019;-61
2021/08/21 11:13:58;;;;;;;0.00;0.00;;;;;;;23.07;54.79;102073.56;10532114;28;20028;-61
2021/08/21 11:18:59;;;;;;;0.00;0.00;;;;;;;22.97;58.61;102065.00;10491229;28;20481;-62
2021/08/21 11:24:00;;;;;;;0.10;0.10;;;;;;;22.79;55.81;102057.47;10534977;28;20012;-61
2021/08/21 11:29:08;;;;;;;0.10;0.10;;;;;;;22.11;53.47;102061.19;10527546;28;20051;-60
2021/08/21 11:34:08;;;;;;;0.00;0.00;;;;;;;21.84;56.14;102051.28;10523773;28;20070;-61
2021/08/21 11:39:09;;;;;;;0.10;0.10;;;;;;;22.00;57.73;102050.09;10493946;28;20090;-61
2021/08/21 11:44:09;;;;;;;0.00;0.00;;;;;;;22.20;57.90;102055.59;10493337;28;20259;-61
2021/08/21 11:49:10;;;;;;;0.10;0.10;;;;;;;22.25;52.63;102053.06;10493814;28;20013;-61
2021/08/21 11:54:11;;;;;;;0.00;0.00;;;;;;;22.08;50.68;102039.06;10492650;28;20013;-61
2021/08/21 11:59:12;;;;;;;0.00;0.00;;;;;;;21.64;52.96;102045.78;10522225;28;20036;-61
2021/08/21 12:09:17;;;;;;;0.00;0.00;;;;;;;21.66;58.53;102041.84;10534585;28;20024;-60
2021/08/21 12:14:22;;;;;;;0.10;0.10;;;;;;;21.87;54.88;102045.44;10513934;28;20390;-61
2021/08/21 12:19:25;;;;;;;0.00;0.00;;;;;;;21.98;53.43;102038.59;10522603;28;20473;-61
2021/08/21 12:24:25;;;;;;;;;;;;;;;21.97;53.62;102034.22;10517426;28;20016;-61
2021/08/21 12:29:27;;;;;;;0.00;0.00;;;;;;;22.40;53.85;102028.44;10532694;28;19919;-61
2021/08/21 12:34:29;;;;;;;0.00;0.00;;;;;;;22.52;53.88;102026.78;10532778;28;20383;-60
2021/08/21 12:39:29;;;;;;;0.00;0.00;;;;;;;22.38;50.18;102031.38;10533296;28;20027;-60
2021/08/21 12:44:29;;;;;;;0.00;0.00;;;;;;;22.25;56.47;102025.94;10519781;28;20024;-61
2021/08/21 12:49:34;;;;;;;0.00;0.00;;;;;;;22.24;53.50;102029.69;10491578;28;20379;-61
2021/08/21 12:54:40;;;;;;;0.00;0.00;;;;;;;22.04;50.79;102029.63;10526467;28;20134;-61
2021/08/21 12:59:42;;;;;;;0.00;0.00;;;;;;;22.47;56.24;102018.44;10529390;28;20028;-62
2021/08/21 13:04:55;;;;;;;0.10;0.10;;;;;;;22.75;53.72;102016.31;10531127;28;20046;-62
2021/08/21 13:09:56;;;;;;;0.00;0.00;;;;;;;22.70;54.78;102007.13;10532368;28;20039;-62
2021/08/21 13:14:56;;;;;;;0.00;0.00;;;;;;;22.38;54.86;102004.22;10531297;28;20023;-61
2021/08/21 13:19:56;;;;;;;0.00;0.00;;;;;;;22.19;57.52;101995.03;10525853;28;20195;-61
2021/08/21 13:24:57;;;;;;;0.00;0.00;;;;;;;22.17;52.30;101986.28;10529563;28;20019;-62
2021/08/21 13:29:57;;;;;;;0.10;0.10;;;;;;;22.01;47.91;101984.75;10530576;28;20024;-61
2021/08/21 13:34:58;;;;;;;0.00;0.00;;;;;;;21.92;53.91;101989.53;10526655;28;20390;-62
2021/08/21 13:39:58;;;;;;;0.00;0.00;;;;;;;21.82;55.62;101988.28;10530637;28;20115;-61
2021/08/21 13:44:58;;;;;;;0.00;0.00;;;;;;;21.87;55.87;101993.91;10530071;28;20012;-62
2021/08/21 13:49:59;;;;;;;0.00;0.00;;;;;;;21.75;57.66;101993.69;10529706;28;20055;-63
2021/08/21 13:54:59;;;;;;;0.00;0.00;;;;;;;22.09;54.35;101975.59;10528705;28;20028;-62
2021/08/21 13:59:59;;;;;;;0.03;0.03;;;;;;;22.16;55.74;101968.28;10513192;28;20027;-62
2021/08/21 14:05:00;;;;;;;0.00;0.00;;;;;;;21.99;56.74;101957.03;10501766;28;20028;-62
2021/08/21 14:10:02;;;;;;;0.10;0.10;;;;;;;21.84;56.77;101967.22;10488797;28;20024;-62
2021/08/21 14:15:04;;;;;;;0.00;0.00;;;;;;;21.90;57.30;101969.94;10487601;28;20020;-62
2021/08/21 14:20:05;;;;;;;0.00;0.00;;;;;;;21.92;56.37;101956.16;10488241;28;20048;-62
2021/08/21 14:25:07;;;;;;;0.10;0.10;;;;;;;21.85;57.31;101958.88;10497541;28;20161;-63
2021/08/21 14:30:09;;;;;;;0.05;0.05;;;;;;;21.94;55.83;101951.38;10528452;28;20076;-63
2021/08/21 14:35:10;;;;;;;0.10;0.10;;;;;;;21.90;55.81;101947.38;10526537;28;20501;-62
2021/08/21 14:40:11;;;;;;;0.10;0.10;;;;;;;21.94;58.76;101943.25;10531844;28;20052;-63
2021/08/21 14:45:11;;;;;;;0.00;0.00;;;;;;;21.91;57.65;101943.66;10537227;28;20016;-62
2021/08/21 14:50:12;;;;;;;0.10;0.10;;;;;;;21.95;55.84;101941.34;10537195;28;20017;-62
2021/08/21 14:55:12;;;;;;;0.00;0.00;;;;;;;22.11;55.99;101949.94;10517309;28;20020;-62
2021/08/21 15:00:13;;;;;;;0.00;0.00;;;;;;;22.01;56.49;101935.09;10495235;28;20039;-62
2021/08/21 15:05:14;;;;;;;0.00;0.00;;;;;;;21.79;56.99;101929.03;10515449;28;20482;-63
2021/08/21 15:10:14;;;;;;;0.00;0.00;;;;;;;21.54;57.94;101924.19;10529250;28;20035;-63
2021/08/21 15:15:14;;;;;;;0.00;0.00;;;;;;;21.45;58.13;101923.53;10535214;28;20020;-63
2021/08/21 15:20:17;;;;;;;0.00;0.00;;;;;;;21.45;60.03;101918.13;10530556;28;20016;-62
2021/08/21 15:25:18;;;;;;;0.10;0.10;;;;;;;21.44;59.23;101919.19;10504389;28;20250;-61
2021/08/21 15:30:18;;;;;;;0.00;0.00;;;;;;;21.53;61.04;101916.28;10535594;28;20736;-62
2021/08/21 15:35:18;;;;;;;0.10;0.10;;;;;;;21.67;59.98;101916.09;10533575;28;20023;-62
2021/08/21 15:40:19;;;;;;;0.00;0.00;;;;;;;21.67;57.75;101902.53;10533551;28;20028;-63
2021/08/21 15:45:20;;;;;;;0.00;0.00;;;;;;;21.53;58.27;101917.09;10516335;28;20027;-63
2021/08/21 15:50:20;;;;;;;0.00;0.00;;;;;;;21.39;59.20;101904.56;10490518;28;20386;-62
2021/08/21 15:55:21;;;;;;;0.03;0.03;;;;;;;21.35;60.22;101909.53;10475352;28;20017;-62
2021/08/21 16:00:23;;;;;;;0.10;0.10;;;;;;;21.37;61.08;101902.03;10494347;28;20037;-62
2021/08/21 16:05:25;;;;;;;0.00;0.00;;;;;;;21.36;60.96;101899.53;10493526;28;20073;-62
2021/08/21 16:10:25;;;;;;;0.10;0.10;;;;;;;21.28;61.71;101903.25;10492935;28;20032;-62
2021/08/21 16:15:26;;;;;;;0.10;0.10;;;;;;;21.20;62.33;101898.00;10534541;28;20028;-62
2021/08/21 16:20:27;;;;;;;0.00;0.00;;;;;;;21.02;62.62;101895.84;10568558;22;20321;-94
2021/08/21 16:25:30;;;;;;;0.10;0.10;;;;;;;20.90;63.65;101894.78;10561119;28;20023;-93
2021/08/21 16:30:33;;;;;;;0.00;0.00;;;;;;;20.82;64.18;101900.34;10582874;28;20023;-94
2021/08/21 16:35:38;;;;;;;0.10;0.10;;;;;;;20.70;64.42;101881.97;10580306;28;20023;-93
2021/08/21 16:40:38;;;;;;;0.00;0.00;;;;;;;20.61;65.00;101894.00;10577027;28;20091;-92
2021/08/21 16:45:39;;;;;;;0.10;0.10;;;;;;;20.50;64.89;101895.34;10594124;28;20043;-92
2021/08/21 16:50:40;;;;;;;0.10;0.10;;;;;;;20.44;65.21;101890.75;10574221;28;20484;-92
2021/08/21 16:55:41;;;;;;;0.10;0.10;;;;;;;20.41;65.08;101893.00;10572348;28;20562;-92
2021/08/21 17:00:42;;;;;;;0.00;0.00;;;;;;;20.44;65.27;101900.75;10574319;28;20115;-92
2021/08/21 17:05:43;;;;;;;0.00;0.00;;;;;;;20.34;65.76;101882.16;10563864;28;20026;-92
2021/08/21 17:10:44;;;;;;;0.10;0.10;;;;;;;20.35;66.84;101892.75;10558601;28;20023;-93
2021/08/21 17:15:44;;;;;;;0.10;0.10;;;;;;;20.26;66.82;101883.13;10564481;28;20049;-93
2021/08/21 17:20:44;;;;;;;0.03;0.03;;;;;;;20.24;68.56;101887.91;10594429;27;20032;-92
2021/08/21 17:25:45;;;;;;;0.00;0.00;;;;;;;20.19;69.25;101889.53;10593580;28;20126;-92
2021/08/21 17:30:46;;;;;;;0.00;0.00;;;;;;;20.12;69.40;101893.00;10595792;27;20016;-92
2021/08/21 17:35:46;;;;;;;0.00;0.00;;;;;;;20.03;70.13;101898.78;10603275;28;20126;-93
2021/08/21 17:40:46;;;;;;;0.10;0.10;;;;;;;19.87;70.31;101886.38;10580356;28;20024;-93
2021/08/21 17:45:47;;;;;;;0.00;0.00;;;;;;;19.74;71.14;101883.56;10595077;28;20020;-93
2021/08/21 17:50:47;;;;;;;0.00;0.00;;;;;;;19.63;71.40;101884.88;10571342;28;20023;-93
2021/08/21 17:55:48;;;;;;;0.10;0.10;;;;;;;19.59;72.43;101899.81;10572389;28;20027;-92
2021/08/21 18:00:48;;;;;;;0.10;0.10;;;;;;;19.47;73.16;101901.34;10569936;28;20024;-92
2021/08/21 18:05:49;;;;;;;0.00;0.00;;;;;;;19.34;73.78;101897.47;10568536;28;20067;-92
2021/08/21 18:10:49;;;;;;;0.00;0.00;;;;;;;19.27;74.43;101901.13;10538108;28;20079;-92
2021/08/21 18:15:49;;;;;;;0.00;0.00;;;;;;;19.11;74.16;101885.97;10525007;28;20028;-92
2021/08/21 18:20:51;;;;;;;0.10;0.10;;;;;;;19.00;74.28;101892.72;10532580;28;20089;-91
2021/08/21 18:25:52;;;;;;;0.00;0.00;;;;;;;18.86;74.78;101891.72;10508285;28;20097;-91
2021/08/21 18:30:53;;;;;;;0.00;0.00;;;;;;;18.73;75.55;101889.69;10508630;28;20020;-90
2021/08/21 18:35:53;;;;;;;0.10;0.10;;;;;;;18.56;75.99;101888.16;10501229;28;20027;-90
2021/08/21 18:40:54;;;;;;;0.10;0.10;;;;;;;18.42;76.04;101897.09;10514246;28;20019;-91
2021/08/21 18:45:54;;;;;;;0.08;0.08;;;;;;;18.27;76.24;101886.28;10551941;28;20020;-93
2021/08/21 18:50:55;;;;;;;0.00;0.00;;;;;;;18.06;76.24;101870.78;10515937;28;20620;-92
2021/08/21 18:55:55;;;;;;;0.00;0.00;;;;;;;17.97;76.89;101888.91;10498481;28;20429;-92
2021/08/21 19:00:55;;;;;;;0.10;0.10;;;;;;;17.87;77.76;101904.50;10487258;28;20077;-92
2021/08/21 19:05:56;;;;;;;0.00;0.00;;;;;;;17.72;78.49;101901.72;10498193;28;20111;-92
2021/08/21 19:10:56;;;;;;;0.00;0.00;;;;;;;17.57;79.48;101896.28;10517827;28;20016;-93
2021/08/21 19:15:56;;;;;;;0.00;0.00;;;;;;;17.39;80.46;101901.09;10526200;28;20024;-92
2021/08/21 19:20:57;;;;;;;0.00;0.00;;;;;;;17.17;80.52;101898.22;10509237;28;20024;-92
2021/08/21 19:25:57;;;;;;;0.10;0.10;;;;;;;17.02;80.76;101893.75;10515584;28;20028;-93
2021/08/21 19:30:58;;;;;;;0.10;0.10;;;;;;;17.02;80.97;101894.59;10517938;28;20024;-93
2021/08/21 19:35:58;;;;;;;0.00;0.00;;;;;;;16.97;81.21;101887.03;10531870;28;20103;-92
2021/08/21 19:40:59;;;;;;;0.10;0.10;;;;;;;16.97;80.79;101880.81;10515239;28;20016;-92
2021/08/21 19:45:59;;;;;;;0.00;0.00;;;;;;;17.00;81.04;101888.53;10509917;28;20008;-92
2021/08/21 19:50:59;;;;;;;0.10;0.10;;;;;;;17.03;80.82;101890.88;10510086;28;20120;-92
2021/08/21 19:56:01;;;;;;;0.10;0.10;;;;;;;17.09;81.27;101903.63;10522603;28;20023;-91
2021/08/21 20:01:01;;;;;;;0.00;0.00;;;;;;;17.01;81.98;101892.91;10516709;28;20070;-92
2021/08/21 20:06:03;;;;;;;0.00;0.00;;;;;;;16.89;83.02;101888.91;10509506;28;20042;-93
2021/08/21 20:11:03;;;;;;;0.05;0.05;;;;;;;16.84;83.75;101893.97;10506728;28;20359;-92
2021/08/21 20:16:04;;;;;;;0.10;0.10;;;;;;;16.78;84.33;101881.22;10528235;28;20543;-93
2021/08/21 20:21:04;;;;;;;0.10;0.10;;;;;;;16.75;84.39;101882.38;10530927;28;20039;-92
2021/08/21 20:26:04;;;;;;;0.10;0.10;;;;;;;16.70;84.10;101880.22;10501429;28;20016;-91
2021/08/21 20:31:06;;;;;;;0.10;0.10;;;;;;;16.71;83.29;101881.06;10508039;28;20021;-93
2021/08/21 20:36:06;;;;;;;0.10;0.10;;;;;;;16.72;82.57;101886.25;10507484;28;20039;-92
2021/08/21 20:41:06;;;;;;;0.10;0.10;;;;;;;16.74;81.98;101878.84;10504323;28;20560;-92
2021/08/21 20:46:09;;;;;;;0.10;0.10;;;;;;;16.77;82.55;101893.00;10514413;28;20019;-91
2021/08/21 20:51:09;;;;;;;0.10;0.10;;;;;;;16.69;82.30;101885.78;10508532;28;20020;-91
2021/08/21 20:56:09;;;;;;;0.10;0.10;;;;;;;16.61;82.90;101881.28;10501682;28;20024;-91
2021/08/21 21:01:10;;;;;;;0.10;0.10;;;;;;;16.50;82.67;101877.09;10516103;28;20020;-92
2021/08/21 21:06:10;;;;;;;0.00;0.00;;;;;;;16.49;82.54;101879.94;10562022;28;20488;-92
2021/08/21 21:11:10;;;;;;;0.10;0.10;;;;;;;16.39;82.94;101873.94;10519593;28;20027;-92
2021/08/21 21:16:11;;;;;;;0.10;0.10;;;;;;;16.34;82.86;101878.97;10560585;28;20110;-92
2021/08/21 21:21:11;;;;;;;0.10;0.10;;;;;;;16.30;82.97;101879.31;10541058;28;20106;-91
2021/08/21 21:26:11;;;;;;;0.00;0.00;;;;;;;16.22;83.27;101878.50;10537717;28;20446;-92
2021/08/21 21:31:12;;;;;;;0.00;0.00;;;;;;;16.14;83.12;101873.97;10526427;28;20080;-92
2021/08/21 21:36:13;;;;;;;0.10;0.10;;;;;;;16.15;83.04;101888.28;10524572;28;20034;-90
2021/08/21 21:41:13;;;;;;;0.10;0.10;;;;;;;16.12;82.97;101876.00;10511130;28;20020;-91
2021/08/21 21:46:14;;;;;;;0.10;0.10;;;;;;;16.10;83.63;101877.19;10496612;28;20020;-90
2021/08/21 21:51:14;;;;;;;0.10;0.10;;;;;;;16.00;83.68;101872.00;10485159;28;20055;-91
2021/08/21 21:56:14;;;;;;;0.10;0.10;;;;;;;15.94;83.56;101875.34;10487623;28;20035;-90
2021/08/21 22:01:15;;;;;;;0.10;0.10;;;;;;;15.88;83.65;101867.94;10504287;28;20274;-90
2021/08/21 22:06:15;;;;;;;0.10;0.10;;;;;;;15.79;84.17;101865.25;10501392;28;20028;-91
2021/08/21 22:11:16;;;;;;;0.10;0.10;;;;;;;15.71;84.71;101859.06;10517156;28;21002;-91
2021/08/21 22:16:16;;;;;;;0.10;0.10;;;;;;;15.61;85.34;101857.34;10541438;28;20028;-91
2021/08/21 22:21:17;;;;;;;0.10;0.10;;;;;;;15.59;85.99;101863.88;10527556;28;20109;-91
2021/08/21 22:26:17;;;;;;;0.05;0.05;;;;;;;15.55;86.14;101871.44;10550904;22;20157;-90
2021/08/21 22:31:18;;;;;;;0.10;0.10;;;;;;;15.49;85.76;101874.78;10503907;28;20070;-90
2021/08/21 22:36:18;;;;;;;0.10;0.10;;;;;;;15.48;85.68;101865.06;10489486;28;20086;-92
2021/08/21 22:41:19;;;;;;;0.10;0.10;;;;;;;15.36;85.77;101851.13;10471149;28;20055;-90
2021/08/21 22:46:19;;;;;;;0.10;0.10;;;;;;;15.37;86.21;101847.44;10476083;28;20028;-92
2021/08/21 22:51:19;;;;;;;0.00;0.00;;;;;;;15.35;86.24;101859.31;10464828;28;20031;-91
2021/08/21 22:56:20;;;;;;;0.10;0.10;;;;;;;15.27;86.20;101849.44;10442886;28;20017;-91
2021/08/21 23:01:20;;;;;;;0.10;0.10;;;;;;;15.33;86.38;101847.91;10460435;28;20084;-91
2021/08/21 23:06:20;;;;;;;0.10;0.10;;;;;;;15.23;86.17;101836.50;10478659;28;20143;-92
2021/08/21 23:11:21;;;;;;;0.10;0.10;;;;;;;15.15;86.29;101831.94;10492573;28;20314;-91
2021/08/21 23:16:22;;;;;;;0.10;0.10;;;;;;;15.17;86.66;101832.63;10477853;28;20043;-91